Sagehen Creek Weather observations

Data are for observation ending at time listed.
 Day   Time    Ave.   Ave.  Ave.  Vector   Max.   Stn.    Total    Solar   Ave.  
  of    of     Air    Rel.  Wind   Wind    Wind   Baro.  Precip.   Rad.    Soil  
Year   Day     Temp.  Hum.  Speed  Dir.    Gust   Pres.                    Temp. 
2014   (PST)    F      %     mph   deg.    mph     mb.     in.     W/m2     F   
------------------------------------------------------------------------------
 264   22:10   40.3    89    0.1   246      0.7   838.6   12.57       0    999.0
 264   22:20   39.9    89    0.3   259      0.9   838.5   12.57       0    999.0
 264   22:30   39.7    90    0.3   284      1.2   838.5   12.57       0    999.0
 264   22:40   39.5    90    0.3   247      1.1   838.3   12.57       0    999.0
 264   22:50   39.2    90    0.2   259      0.8   838.4   12.57       0    999.0
 264   23:00   39.1    90    0.0   277      0.6   838.6   12.57       0    999.0
 264   23:10   39.0    90    0.4   266      1.1   838.6   12.57       0    999.0
 264   23:20   38.7    90    0.1   265      0.8   838.5   12.57       0    999.0
 264   23:30   38.5    91    0.2   265      0.9   838.5   12.57       0    999.0
 264   23:40   38.3    91    0.5   268      1.1   838.7   12.57       0    999.0
 264   23:50   38.0    91    0.1   256      0.6   838.5   12.57       0    999.0
 265    0:00   37.9    91    0.6   278      1.1   838.2   12.57       0    999.0
 265    0:10   37.8    92    0.4   253      1.2   838.5   12.57       0    999.0
 265    0:20   37.6    92    0.4   273      1.0   838.6   12.57       0    999.0
 265    0:30   37.4    92    0.4   250      1.2   838.7   12.57       0    999.0
 265    0:40   37.2    92    0.4   268      0.9   838.9   12.57       0    999.0
 265    0:50   37.1    92    0.3   261      0.9   838.8   12.57       0    999.0
 265    1:00   36.9    92    0.3   263      1.0   838.7   12.57       0    999.0
 265    1:10   36.7    92    0.2   270      0.8   838.8   12.57       0    999.0
 265    1:20   36.5    92    0.5   264      0.9   838.5   12.57       0    999.0
 265    1:30   36.5    92    0.3   260      1.3   838.3   12.57       0    999.0
 265    1:40   36.2    92    0.3   278      0.8   838.7   12.57       0    999.0
 265    1:50   36.0    93    0.6   272      1.2   838.7   12.57       0    999.0
 265    2:00   35.8    93    0.3   252      1.0   838.8   12.57       0    999.0
 265    2:10   35.8    93    0.7   278      1.0     0.0   12.57       0    999.0
 265    2:20   35.7    93    0.8   278      1.2   433.3   12.57       0    999.0
 265    2:30   35.6    93    0.0   260      0.3   838.6   12.57       0    999.0
 265    2:40   35.4    93    0.4   267      0.8   838.6   12.57       0    999.0
 265    2:50   35.3    93    0.8   263      1.1   838.4   12.57       0    999.0
 265    3:00   35.1    93    0.2   262      0.9   838.1   12.57       0    999.0
 265    3:10   34.9    93    0.9   267      1.4   838.5   12.57       0    999.0
 265    3:20   34.8    93    0.0     0      0.0   838.6   12.57       0    999.0
 265    3:30   34.8    93    1.0   272      1.4   838.7   12.57       0    999.0
 265    3:40   34.6    93    0.1   262      0.5   838.2   12.57       0    999.0
 265    3:50   34.5    94    0.6   267      1.0   838.3   12.57       0    999.0
 265    4:00   34.4    94    0.7   266      1.4   838.4   12.57       0    999.0
 265    4:10   34.3    94    0.4   258      0.9   838.7   12.57       0    999.0
 265    4:20   34.1    94    0.3   266      0.7   838.6   12.57       0    999.0
 265    4:30   34.0    94    0.4   266      0.9   838.4   12.57       0    999.0
 265    4:40   33.9    94    0.4   270      1.0   838.2   12.57       0    999.0
 265    4:50   33.8    94    0.2   266      0.8   838.5   12.57       0    999.0
 265    5:00   33.7    94    0.3   265      0.7   838.8   12.57       0    999.0
 265    5:10   33.6    94    0.5   263      1.1   838.6   12.57       0    999.0
 265    5:20   33.4    94    0.3   264      1.0   838.5   12.57       0    999.0
 265    5:30   33.3    94    0.4   265      1.0   838.3   12.57       0    999.0
 265    5:40   33.3    94    0.1   274      0.9   838.8   12.57       1    999.0
 265    5:50   33.1    94    0.4   263      1.0   838.8   12.57       2    999.0
 265    6:00   33.1    94    0.1   266      0.7   838.8   12.57       5    999.0
 265    6:10   33.1    94    0.4   269      1.1   838.4   12.57      11    999.0
 265    6:20   33.2    94    0.6   263      1.0   838.6   12.57      16    999.0
 265    6:30   33.5    94    0.0   266      0.6   838.8   12.57      23    999.0
 265    6:40   34.0    94    0.3   273      1.0   839.1   12.57      61    999.0
 265    6:50   35.2    94    0.4   279      0.9   838.9   12.57     125    999.0
 265    7:00   36.5    94    0.1   274      0.5   838.7   12.57     155    999.0
 265    7:10   37.9    93    0.0     0      0.0   838.8   12.57     186    999.0
 265    7:20   39.4    93    0.0     0      0.0   839.0   12.57     217    999.0
 265    7:30   41.1    92    0.0     0      0.0   839.1   12.57     247    999.0
 265    7:40   43.1    90    0.0     0      0.0   838.8   12.57     282    999.0
 265    7:50   46.0    87    0.0     0      0.0   839.0   12.57     315    999.0
 265    8:00   49.4    78    0.3   168      1.1   839.1   12.57     344    999.0
 265    8:10   51.7    74    1.8   110      4.8   839.1   12.57     371    999.0
 265    8:20   53.4    68    3.2    94      5.3   839.2   12.57     400    999.0
 265    8:30   54.7    66    3.0    92      5.8   839.3   12.57     428    999.0
 265    8:40   56.2    63    3.2    96      5.8   838.8   12.57     456    999.0
 265    8:50   57.0    61    3.5   100      5.3   838.8   12.57     483    999.0
 265    9:00   58.4    59    3.3    90      4.8   838.8   12.57     510    999.0
 265    9:10   60.0    56    3.2    95      6.2   839.1   12.57     535    999.0
 265    9:20   61.3    54    3.7    91      6.8   839.1   12.56     560    999.0
 265    9:30   62.1    53    3.5    92      6.2   839.2   12.56     573    999.0
 265    9:40   63.7    50    2.6    86      5.2   839.0   12.56     594    999.0
 265    9:50   65.4    48    2.6    82      5.9   838.8   12.56     618    999.0
 265   10:00   66.7    45    2.2   104      7.3   838.7   12.56     640    999.0
 265   10:10   67.4    43    2.5    87      6.7   838.8   12.56     660    999.0
 265   10:20   67.7    42    2.4    67      5.1   838.9   12.56     679    999.0
 265   10:30   69.7    40    2.4    94      7.3   839.0   12.56     710    999.0
 265   10:40   69.6    39    3.0    81      7.0   838.4   12.56     570    999.0
 265   10:50   70.2    38    3.3    90      6.9   838.6   12.55     738    999.0
 265   11:00   70.8    36    2.3    93      7.5   838.9   12.55     751    999.0
 265   11:10   73.1    32    1.8   231      5.1   838.6   12.55     874    999.0
 265   11:20   73.0    31    2.5   157      6.7   838.6   12.55     872    999.0
 265   11:30   74.2    30    1.9   158      5.0   838.6   12.55     854    999.0
 265   11:40   75.2    30    1.4   243      4.0   838.5   12.55     817    999.0
 265   11:50   74.6    30    1.4   184      5.4   838.6   12.55     841    999.0
 265   12:00   74.6    30    2.4   252      5.3   838.7   12.55     856    999.0
 265   12:10   74.8    30    2.5   233      4.6   838.5   12.55     849    999.0
 265   12:20   75.1    29    1.5   248      4.1   838.5   12.55     837    999.0
 265   12:30   74.8    28    1.9   238      5.2   838.5   12.55     821    999.0
 265   12:40   73.9    29    3.5   190      8.3   838.4   12.55     808    999.0
 265   12:50   73.8    29    2.9   268      6.5   838.4   12.55     791    999.0
 265   13:00   74.4    30    2.7   217      6.2   838.4   12.55     757    999.0
 265   13:10   74.1    30    2.5   202      5.0   838.3   12.55     729    999.0
 265   13:20   73.8    29    2.2   195      4.7   838.2   12.55     693    999.0
 265   13:30   73.7    30    1.9   259      4.1   838.1   12.55     683    999.0
 265   13:40   74.1    29    2.5   190      5.6   838.1   12.55     657    999.0
 265   13:50   73.7    29    2.2   260      7.2   838.1   12.55     643    999.0
 265   14:00   74.0    28    1.4   236      3.8   838.0   12.55     618    999.0
 265   14:10   74.2    28    1.9   267      5.0   837.7   12.55     586    999.0
 265   14:20   74.0    31    2.4   240      4.7   837.6   12.55     565    999.0
 265   14:30   73.2    29    3.0   214      9.6   837.5   12.55     518    999.0
 265   14:40   73.0    30    1.9   244      4.4   837.4   12.55     477    999.0
 265   14:50   72.8    30    2.4   231      6.0   837.6   12.55     424    999.0
 265   15:00   72.1    32    2.1   244      6.6   837.8   12.55     352    999.0
 265   15:10   71.2    31    2.8   257      6.9   837.8   12.55     347    999.0
 265   15:20   70.7    32    1.4   201      4.1   837.6   12.55     329    999.0
 265   15:30   70.6    32    2.2   237     10.1   837.5   12.55     301    999.0
 265   15:40   69.7    33    2.3   241      5.2   837.6   12.55     254    999.0
 265   15:50   68.7    34    2.7   251      7.4   837.8   12.56     140    999.0
 265   16:00   67.7    36    2.4   254      5.3   838.0   12.55     142    999.0
 265   16:10   67.1    34    3.1   227      8.7   837.6   12.56     210    999.0
 265   16:20   66.7    34    2.1   240      5.4   837.5   12.56     130    999.0
 265   16:30   66.1    35    2.6   247      6.4   837.4   12.56      85    999.0
 265   16:40   65.5    36    2.4   247      5.3   837.9   12.56      66    999.0
 265   16:50   64.6    40    1.8   231      3.6   837.7   12.56      46    999.0
 265   17:00   63.4    43    1.5   241      3.7   837.5   12.56      64    999.0
 265   17:10   62.9    43    1.3   246      3.4   837.6   12.56      66    999.0
 265   17:20   62.7    44    0.9   232      1.8   837.8   12.56      53    999.0
 265   17:30   62.4    44    0.4   234      1.7   837.9   12.56      26    999.0
 265   17:40   61.2    49    0.6    66      1.5   838.0   12.56      17    999.0
 265   17:50   59.7    52    0.2    87      1.2   838.1   12.56       7    999.0
 265   18:00   58.0    56    0.2   241      1.0   838.2   12.56       3    999.0
 265   18:10   56.5    59    0.5   294      1.7   838.3   12.56       1    999.0
 265   18:20   55.3    61    0.5   189      1.9   838.2   12.56       0    999.0
 265   18:30   54.1    63    0.3   246      1.3   838.2   12.56       0    999.0
 265   18:40   53.1    64    0.2   223      1.1   838.0   12.56       0    999.0
 265   18:50   52.2    64    0.3   202      1.3   838.0   12.56       0    999.0
 265   19:00   51.2    66    0.7   255      1.9   838.0   12.56       0    999.0
 265   19:10   50.3    66    0.0   209      0.1   838.6   12.56       0    999.0
 265   19:20   49.7    68    0.1   206      0.8   838.6   12.56       0    999.0
 265   19:30   48.9    69    0.5   243      1.7   838.5   12.56       0    999.0
 265   19:40   48.1    69    0.1   293      0.6   838.2   12.56       0    999.0
 265   19:50   47.8    70    0.3   238      1.4   838.4   12.56       0    999.0
 265   20:00   46.9    71    0.1   244      0.4   838.5   12.56       0    999.0
 265   20:10   46.2    71    0.1   255      0.7   838.1   12.56       0    999.0
 265   20:20   45.8    72    0.4   238      0.9   838.3   12.56       0    999.0
 265   20:30   45.0    74    0.6   227      1.5   838.6   12.56       0    999.0
 265   20:40   44.3    74    0.4   192      2.2   838.1   12.56       0    999.0
 265   20:50   43.9    73    0.1   190      1.1   838.4   12.56       0    999.0
 265   21:00   43.4    74    0.0     0      0.0   838.6   12.56       0    999.0
 265   21:10   43.0    75    0.2   258      0.7   838.1   12.56       0    999.0
 265   21:20   42.7    75    0.1   253      0.6   838.3   12.56       0    999.0
 265   21:30   42.3    76    0.1   238      0.9   838.5   12.56       0    999.0
 265   21:40   41.9    77    0.1   250      0.9   838.3   12.56       0    999.0
 265   21:50   41.6    77    0.2   277      1.0   838.2   12.56       0    999.0
 265   22:00   41.3    78    0.0   253      0.2   838.2   12.56       0    999.0

Return to Sagehen Creek graphs page.


Western Regional Climate Center,wrcc@dri.edu